createdAt,value
2022-10-22T00:00:43.969Z,3.75
2022-10-22T00:03:15.590Z,4.10
2022-10-22T00:05:46.841Z,3.90
2022-10-22T00:08:15.918Z,3.28
2022-10-22T00:10:45.128Z,3.38
2022-10-22T00:13:17.385Z,4.00
2022-10-22T00:18:28.229Z,3.60
2022-10-22T00:21:00.129Z,4.38
2022-10-22T00:23:29.087Z,3.97
2022-10-22T00:28:55.074Z,3.85
2022-10-22T00:31:23.746Z,3.78
2022-10-22T00:34:03.059Z,4.20
2022-10-22T00:36:34.581Z,4.40
2022-10-22T00:39:03.649Z,4.68
2022-10-22T00:41:34.276Z,4.93
2022-10-22T00:44:06.337Z,4.75
2022-10-22T00:46:37.804Z,5.50
2022-10-22T00:49:18.494Z,4.50
2022-10-22T00:52:00.039Z,4.57
2022-10-22T00:54:31.414Z,5.00
2022-10-22T00:56:58.568Z,4.38
2022-10-22T00:59:26.704Z,4.60
2022-10-22T01:01:59.976Z,4.53
2022-10-22T01:07:05.856Z,4.13
2022-10-22T01:09:37.767Z,4.20
2022-10-22T01:12:16.773Z,4.40
2022-10-22T01:15:14.587Z,3.95
2022-10-22T01:21:02.545Z,3.83
2022-10-22T01:23:51.698Z,3.95
2022-10-22T01:29:39.330Z,3.88
2022-10-22T01:32:18.132Z,3.80
2022-10-22T01:34:57.279Z,4.18
2022-10-22T01:37:31.802Z,4.03
2022-10-22T01:39:59.827Z,4.40
2022-10-22T01:42:37.883Z,3.97
2022-10-22T01:45:16.626Z,4.07
2022-10-22T01:47:54.411Z,3.50
2022-10-22T01:50:23.659Z,3.83
2022-10-22T01:52:55.217Z,3.95
2022-10-22T01:55:32.930Z,4.05
2022-10-22T01:58:21.468Z,3.75
2022-10-22T02:01:19.174Z,3.83
2022-10-22T02:04:01.358Z,3.72
2022-10-22T02:06:37.899Z,4.50
2022-10-22T02:09:18.343Z,3.80
2022-10-22T02:11:47.808Z,4.53
2022-10-22T02:14:21.318Z,4.45
2022-10-22T02:19:47.826Z,3.47
2022-10-22T02:22:19.229Z,3.67
2022-10-22T02:24:50.384Z,3.80
2022-10-22T02:27:30.228Z,4.40
2022-10-22T02:30:01.665Z,3.95
2022-10-22T02:32:35.904Z,3.90
2022-10-22T02:35:05.000Z,4.32
2022-10-22T02:37:33.986Z,3.35
2022-10-22T02:40:03.281Z,4.30
2022-10-22T02:43:03.691Z,3.67
2022-10-22T02:45:33.403Z,3.40
2022-10-22T02:48:04.941Z,3.42
2022-10-22T02:50:44.267Z,3.95
2022-10-22T02:53:19.099Z,4.05
2022-10-22T02:56:03.034Z,4.50
2022-10-22T02:58:58.489Z,3.83
2022-10-22T03:01:33.648Z,3.58
2022-10-22T03:04:02.955Z,3.97
2022-10-22T03:06:36.306Z,4.40
2022-10-22T03:11:41.784Z,3.78
2022-10-22T03:14:31.834Z,4.88
2022-10-22T03:17:04.746Z,3.67
2022-10-22T03:19:36.982Z,4.30
2022-10-22T03:22:35.268Z,3.72
2022-10-22T03:25:16.564Z,3.58
2022-10-22T03:28:16.233Z,3.75
2022-10-22T03:30:46.663Z,3.75
2022-10-22T03:33:17.575Z,3.60
2022-10-22T03:36:07.115Z,3.00
2022-10-22T03:38:42.520Z,4.20
2022-10-22T03:41:11.957Z,4.22
2022-10-22T03:43:46.986Z,3.67
2022-10-22T03:46:21.863Z,4.18
2022-10-22T03:48:51.917Z,4.15
2022-10-22T03:51:29.327Z,4.15
2022-10-22T03:59:52.435Z,4.38
2022-10-22T04:02:23.987Z,3.75
2022-10-22T04:05:03.941Z,3.72
2022-10-22T04:07:31.657Z,4.15
2022-10-22T04:10:24.680Z,4.13
2022-10-22T04:18:31.430Z,4.85
2022-10-22T04:21:16.185Z,4.15
2022-10-22T04:24:08.270Z,4.30
2022-10-22T04:26:40.276Z,4.00
2022-10-22T04:32:13.418Z,4.07
2022-10-22T04:34:40.723Z,4.40
2022-10-22T04:37:19.364Z,3.95
2022-10-22T04:39:46.761Z,3.25
2022-10-22T04:42:17.927Z,4.13
2022-10-22T04:44:57.078Z,4.65
2022-10-22T04:47:26.207Z,4.10
2022-10-22T04:50:03.839Z,4.00
2022-10-22T04:52:36.954Z,4.28
2022-10-22T04:55:08.136Z,3.40
2022-10-22T04:57:41.653Z,4.05
2022-10-22T05:00:18.841Z,4.03
2022-10-22T05:02:53.793Z,3.60
2022-10-22T05:08:28.377Z,3.78
2022-10-22T05:10:58.688Z,3.80
2022-10-22T05:13:33.510Z,3.90
2022-10-22T05:16:16.349Z,3.72
2022-10-22T05:18:46.835Z,3.03
2022-10-22T05:21:23.522Z,3.03
2022-10-22T05:27:01.404Z,4.22
2022-10-22T05:29:36.778Z,3.38
2022-10-22T05:32:03.825Z,3.45
2022-10-22T05:34:42.645Z,3.20
2022-10-22T05:37:09.864Z,4.38
2022-10-22T05:39:44.520Z,3.05
2022-10-22T05:42:20.185Z,3.67
2022-10-22T05:44:57.414Z,3.00
2022-10-22T05:47:28.101Z,3.38
2022-10-22T05:50:10.968Z,3.25
2022-10-22T05:52:47.818Z,3.30
2022-10-22T05:55:23.924Z,3.50
2022-10-22T05:57:57.173Z,3.10
2022-10-22T06:02:57.660Z,2.70
2022-10-22T06:05:27.009Z,4.00
2022-10-22T06:08:04.548Z,3.00
2022-10-22T06:10:31.712Z,3.75
2022-10-22T06:13:08.112Z,2.58
2022-10-22T06:18:20.879Z,2.85
2022-10-22T06:20:47.848Z,2.97
2022-10-22T06:23:15.286Z,2.78
2022-10-22T06:25:43.446Z,2.15
2022-10-22T06:28:13.358Z,2.72
2022-10-22T06:30:43.004Z,1.77
2022-10-22T06:33:13.336Z,2.00
2022-10-22T06:35:40.322Z,2.45
2022-10-22T06:38:08.206Z,2.60
2022-10-22T06:40:43.456Z,2.42
2022-10-22T06:43:10.976Z,2.60
2022-10-22T06:45:37.976Z,3.08
2022-10-22T06:48:05.031Z,2.58
2022-10-22T06:50:35.528Z,2.67
2022-10-22T06:53:05.733Z,2.22
2022-10-22T06:55:35.938Z,3.15
2022-10-22T06:58:07.664Z,2.25
2022-10-22T07:00:44.043Z,2.35
2022-10-22T07:03:14.424Z,2.35
2022-10-22T07:05:43.731Z,2.58
2022-10-22T07:08:18.126Z,2.38
2022-10-22T07:10:52.579Z,2.30
2022-10-22T07:13:19.923Z,2.60
2022-10-22T07:15:58.436Z,2.63
2022-10-22T07:18:28.452Z,2.40
2022-10-22T07:20:59.156Z,3.10
2022-10-22T07:23:26.718Z,2.55
2022-10-22T07:28:28.559Z,2.80
2022-10-22T07:30:57.420Z,2.35
2022-10-22T07:33:24.454Z,2.60
2022-10-22T07:35:52.943Z,2.67
2022-10-22T07:38:24.316Z,2.28
2022-10-22T07:40:57.168Z,2.10
2022-10-22T07:43:24.548Z,2.22
2022-10-22T07:45:51.589Z,2.08
2022-10-22T07:48:20.087Z,2.47
2022-10-22T07:53:39.765Z,1.95
2022-10-22T07:56:16.808Z,2.45
2022-10-22T07:58:44.366Z,2.15
2022-10-22T08:01:11.449Z,2.33
2022-10-22T08:03:47.043Z,1.70
2022-10-22T08:06:14.865Z,2.17
2022-10-22T08:08:50.235Z,2.08
2022-10-22T08:11:32.232Z,2.60
2022-10-22T08:14:10.682Z,2.80
2022-10-22T08:16:42.951Z,1.80
2022-10-22T08:19:14.870Z,2.33
2022-10-22T08:21:41.852Z,2.10
2022-10-22T08:24:08.912Z,1.80
2022-10-22T08:26:45.271Z,1.58
2022-10-22T08:29:12.280Z,2.30
2022-10-22T08:31:50.979Z,1.90
2022-10-22T08:34:17.955Z,1.60
2022-10-22T08:36:44.959Z,1.63
2022-10-22T08:42:23.839Z,2.38
2022-10-22T08:44:56.715Z,3.05
2022-10-22T08:47:48.306Z,1.50
2022-10-22T08:50:18.377Z,1.90
2022-10-22T08:55:41.029Z,1.88
2022-10-22T08:58:26.620Z,1.25
2022-10-22T09:00:58.859Z,2.10
2022-10-22T09:03:34.766Z,1.33
2022-10-22T09:06:16.184Z,1.70
2022-10-22T09:11:33.565Z,2.75
2022-10-22T09:14:01.551Z,2.28
2022-10-22T09:16:41.612Z,1.48
2022-10-22T09:19:21.022Z,1.48
2022-10-22T09:22:07.729Z,2.13
2022-10-22T09:27:44.110Z,2.05
2022-10-22T09:30:15.940Z,2.03
2022-10-22T09:32:46.194Z,2.75
2022-10-22T09:35:27.039Z,2.58
2022-10-22T09:37:55.497Z,2.10
2022-10-22T09:40:22.786Z,1.65
2022-10-22T09:42:50.100Z,1.70
2022-10-22T09:45:45.158Z,1.77
2022-10-22T09:48:27.844Z,2.22
2022-10-22T09:51:13.540Z,1.75
2022-10-22T09:54:22.130Z,1.42
2022-10-22T09:56:52.262Z,2.30
2022-10-22T09:59:41.265Z,2.20
2022-10-22T10:02:33.601Z,1.70
2022-10-22T10:05:07.546Z,1.60
2022-10-22T10:07:49.694Z,1.67
2022-10-22T10:10:42.767Z,2.30
2022-10-22T10:13:30.493Z,1.40
2022-10-22T10:16:25.424Z,2.03
2022-10-22T10:19:43.395Z,1.58
2022-10-22T10:22:32.541Z,1.35
2022-10-22T10:25:29.108Z,2.00
2022-10-22T10:28:20.985Z,1.95
2022-10-22T10:30:59.255Z,2.05
2022-10-22T10:34:00.195Z,1.48
2022-10-22T10:36:36.144Z,1.90
2022-10-22T10:39:05.883Z,1.98
2022-10-22T10:41:46.328Z,1.67
2022-10-22T10:44:21.002Z,2.08
2022-10-22T10:46:52.394Z,1.77
2022-10-22T10:49:45.846Z,1.42
2022-10-22T10:52:15.246Z,1.58
2022-10-22T10:54:47.428Z,1.45
2022-10-22T10:57:44.147Z,1.77
2022-10-22T11:00:30.983Z,1.67
2022-10-22T11:05:56.155Z,1.77
2022-10-22T11:08:32.242Z,1.70
2022-10-22T11:11:02.370Z,1.67
2022-10-22T11:14:30.366Z,1.63
2022-10-22T11:17:06.030Z,1.90
2022-10-22T11:19:50.242Z,1.08
2022-10-22T11:22:26.742Z,1.40
2022-10-22T11:24:54.385Z,2.08
2022-10-22T11:27:34.355Z,1.00
2022-10-22T11:30:28.332Z,1.63
2022-10-22T11:33:01.464Z,1.45
2022-10-22T11:38:19.408Z,1.75
2022-10-22T11:40:52.782Z,1.98
2022-10-22T11:44:01.144Z,1.30
2022-10-22T11:46:34.975Z,1.75
2022-10-22T11:49:03.974Z,1.40
2022-10-22T11:51:49.976Z,1.40
2022-10-22T11:54:30.596Z,1.63
2022-10-22T11:57:16.012Z,1.77
2022-10-22T11:59:45.651Z,1.52
2022-10-22T12:02:30.727Z,1.80
2022-10-22T12:05:19.274Z,2.08
2022-10-22T12:07:56.428Z,1.73
2022-10-22T12:10:59.323Z,1.60
2022-10-22T12:13:44.387Z,1.98
2022-10-22T12:16:14.952Z,1.58
2022-10-22T12:18:45.147Z,1.70
2022-10-22T12:21:19.370Z,1.50
2022-10-22T12:23:53.822Z,2.00
2022-10-22T12:26:34.631Z,2.15
2022-10-22T12:29:13.919Z,1.95
2022-10-22T12:31:47.383Z,1.30
2022-10-22T12:34:20.947Z,1.73
2022-10-22T12:36:50.145Z,1.67
2022-10-22T12:39:26.938Z,2.35
2022-10-22T12:41:58.659Z,1.90
2022-10-22T12:44:27.771Z,1.50
2022-10-22T12:46:58.096Z,1.75
2022-10-22T12:52:40.497Z,1.85
2022-10-22T12:55:17.738Z,1.45
2022-10-22T12:57:52.507Z,1.77
2022-10-22T13:00:37.645Z,2.08
2022-10-22T13:03:07.093Z,1.60
2022-10-22T13:05:39.311Z,1.50
2022-10-22T13:08:09.811Z,1.55
2022-10-22T13:10:56.944Z,1.77
2022-10-22T13:13:36.085Z,1.60
2022-10-22T13:16:18.364Z,2.15
2022-10-22T13:18:46.392Z,1.58
2022-10-22T13:21:28.559Z,2.17
2022-10-22T13:24:02.370Z,1.60
2022-10-22T13:26:53.025Z,2.10
2022-10-22T13:29:21.331Z,1.77
2022-10-22T13:31:49.995Z,2.03
2022-10-22T13:34:21.679Z,1.70
2022-10-22T13:36:49.408Z,1.80
2022-10-22T13:39:35.234Z,1.73
2022-10-22T13:42:02.229Z,1.90
2022-10-22T13:44:29.208Z,2.28
2022-10-22T13:46:58.924Z,1.85
2022-10-22T13:49:27.729Z,1.80
2022-10-22T13:52:05.025Z,2.03
2022-10-22T13:54:32.151Z,2.15
2022-10-22T13:56:59.137Z,1.95
2022-10-22T13:59:27.298Z,1.75
2022-10-22T14:02:05.847Z,2.72
2022-10-22T14:04:34.589Z,2.40
2022-10-22T14:07:04.900Z,2.20
2022-10-22T14:09:31.979Z,2.03
2022-10-22T14:14:47.706Z,2.00
2022-10-22T14:17:16.653Z,2.05
2022-10-22T14:20:11.816Z,2.00
2022-10-22T14:22:38.791Z,2.25
2022-10-22T14:25:05.967Z,2.10
2022-10-22T14:30:46.119Z,2.40
2022-10-22T14:33:20.538Z,2.38
2022-10-22T14:36:06.147Z,2.85
2022-10-22T14:39:19.594Z,2.53
2022-10-22T14:41:47.373Z,2.80
2022-10-22T14:44:29.684Z,2.58
2022-10-22T14:46:56.768Z,2.85
2022-10-22T14:49:28.410Z,2.47
2022-10-22T14:52:01.194Z,1.80
2022-10-22T14:54:28.522Z,1.98
2022-10-22T14:56:58.455Z,1.80
2022-10-22T14:59:25.486Z,2.22
2022-10-22T15:01:53.882Z,1.50
2022-10-22T15:04:21.875Z,1.95
2022-10-22T15:06:56.791Z,1.73
2022-10-22T15:09:24.407Z,1.73
2022-10-22T15:11:51.733Z,2.28
2022-10-22T15:14:18.784Z,2.03
2022-10-22T15:16:48.622Z,1.70
2022-10-22T15:19:15.683Z,1.90
2022-10-22T15:21:45.741Z,1.92
2022-10-22T15:24:12.767Z,2.00
2022-10-22T15:26:44.999Z,1.85
2022-10-22T15:29:12.052Z,2.15
2022-10-22T15:31:49.183Z,1.92
2022-10-22T15:34:20.284Z,1.98
2022-10-22T15:36:47.518Z,1.80
2022-10-22T15:39:15.163Z,1.75
2022-10-22T15:41:42.195Z,2.17
2022-10-22T15:44:15.215Z,1.55
2022-10-22T15:49:15.875Z,1.30
2022-10-22T15:51:43.242Z,1.88
2022-10-22T15:54:14.711Z,2.15
2022-10-22T15:56:41.896Z,1.85
2022-10-22T15:59:10.867Z,2.35
2022-10-22T16:01:38.119Z,1.65
2022-10-22T16:04:05.640Z,2.50
2022-10-22T16:06:40.450Z,2.25
2022-10-22T16:09:17.083Z,2.13
2022-10-22T16:11:44.342Z,1.50
2022-10-22T16:14:12.704Z,1.98
2022-10-22T16:16:42.630Z,1.80
2022-10-22T16:19:15.301Z,1.73
2022-10-22T16:21:42.658Z,1.50
2022-10-22T16:24:13.281Z,2.00
2022-10-22T16:26:46.993Z,2.15
2022-10-22T16:29:17.034Z,2.15
2022-10-22T16:31:46.846Z,2.40
2022-10-22T16:34:14.042Z,2.28
2022-10-22T16:36:41.151Z,2.55
2022-10-22T16:39:10.100Z,2.45
2022-10-22T16:41:37.574Z,2.20
2022-10-22T16:44:08.640Z,2.20
2022-10-22T16:46:41.596Z,2.40
2022-10-22T16:49:38.332Z,2.63
2022-10-22T16:52:11.415Z,2.17
2022-10-22T16:54:38.491Z,2.08
2022-10-22T16:57:09.280Z,2.60
2022-10-22T16:59:39.157Z,2.40
2022-10-22T17:02:17.828Z,1.90
2022-10-22T17:05:33.767Z,2.40
2022-10-22T17:08:00.798Z,2.25
2022-10-22T17:10:31.090Z,1.90
2022-10-22T17:18:48.045Z,2.80
2022-10-22T17:21:15.808Z,2.20
2022-10-22T17:24:19.860Z,3.08
2022-10-22T17:29:20.816Z,2.58
2022-10-22T17:31:57.486Z,2.78
2022-10-22T17:34:24.848Z,2.22
2022-10-22T17:36:52.873Z,2.03
2022-10-22T17:39:36.291Z,2.35
2022-10-22T17:44:52.120Z,2.50
2022-10-22T17:47:19.238Z,2.42
2022-10-22T17:56:07.664Z,1.83
2022-10-22T17:58:34.679Z,2.67
2022-10-22T18:01:35.042Z,2.75
2022-10-22T18:04:30.479Z,2.25
2022-10-22T18:07:25.112Z,2.63
2022-10-22T18:09:52.126Z,2.60
2022-10-22T18:12:31.117Z,3.38
2022-10-22T18:16:00.957Z,2.38
2022-10-22T18:18:19.472Z,2.83
2022-10-22T18:24:36.633Z,2.63
2022-10-22T18:27:07.837Z,2.47
2022-10-22T18:30:16.574Z,2.35
2022-10-22T18:33:08.899Z,2.38
2022-10-22T18:36:02.028Z,2.78
2022-10-22T18:38:48.712Z,2.83
2022-10-22T18:41:15.747Z,2.30
2022-10-22T18:43:57.515Z,2.33
2022-10-22T18:49:42.351Z,2.67
2022-10-22T18:52:09.522Z,2.92
2022-10-22T18:54:46.841Z,2.30
2022-10-22T19:00:13.669Z,2.75
2022-10-22T19:02:40.959Z,3.10
2022-10-22T19:05:08.411Z,3.05
2022-10-22T19:11:00.430Z,2.90
2022-10-22T19:13:47.376Z,2.85
2022-10-22T19:16:33.205Z,3.35
2022-10-22T19:19:29.175Z,2.47
2022-10-22T19:22:10.702Z,2.60
2022-10-22T19:24:39.238Z,2.83
2022-10-22T19:27:14.469Z,2.70
2022-10-22T19:29:41.647Z,2.17
2022-10-22T19:32:20.954Z,3.10
2022-10-22T19:34:50.813Z,2.60
2022-10-22T19:37:48.309Z,3.30
2022-10-22T19:40:16.453Z,3.35
2022-10-22T19:42:53.638Z,3.38
2022-10-22T19:45:26.980Z,3.47
2022-10-22T19:50:46.222Z,3.65
2022-10-22T19:53:22.778Z,3.20
2022-10-22T19:55:50.412Z,3.70
2022-10-22T19:58:25.053Z,3.35
2022-10-22T20:00:53.389Z,3.35
2022-10-22T20:03:29.462Z,3.65
2022-10-22T20:06:05.795Z,3.30
2022-10-22T20:08:37.861Z,3.28
2022-10-22T20:11:14.378Z,3.10
2022-10-22T20:13:52.610Z,3.78
2022-10-22T20:16:24.266Z,3.22
2022-10-22T20:19:17.722Z,3.00
2022-10-22T20:21:54.008Z,3.30
2022-10-22T20:24:21.283Z,3.55
2022-10-22T20:26:53.575Z,3.70
2022-10-22T20:29:39.800Z,3.50
2022-10-22T20:32:11.586Z,3.75
2022-10-22T20:35:12.579Z,3.13
2022-10-22T20:37:41.833Z,3.70
2022-10-22T20:40:25.321Z,3.95
2022-10-22T20:46:13.149Z,3.60
2022-10-22T20:48:40.152Z,3.50
2022-10-22T20:51:19.520Z,3.10
2022-10-22T20:53:51.122Z,2.67
2022-10-22T20:56:25.413Z,2.90
2022-10-22T20:59:04.236Z,3.00
2022-10-22T21:01:49.214Z,2.28
2022-10-22T21:04:41.596Z,2.72
2022-10-22T21:07:22.644Z,2.90
2022-10-22T21:09:59.171Z,2.45
2022-10-22T21:12:30.376Z,3.20
2022-10-22T21:15:11.749Z,3.10
2022-10-22T21:17:49.659Z,2.00
2022-10-22T21:20:24.620Z,3.17
2022-10-22T21:22:59.915Z,3.05
2022-10-22T21:25:45.147Z,3.08
2022-10-22T21:28:15.973Z,2.95
2022-10-22T21:30:51.691Z,3.30
2022-10-22T21:33:28.104Z,2.50
2022-10-22T21:36:01.252Z,2.38
2022-10-22T21:38:38.962Z,2.88
2022-10-22T21:41:11.182Z,3.60
2022-10-22T21:43:39.475Z,2.80
2022-10-22T21:46:08.576Z,2.22
2022-10-22T21:49:04.762Z,2.63
2022-10-22T21:51:46.286Z,2.17
2022-10-22T21:54:16.731Z,2.03
2022-10-22T21:56:57.411Z,2.50
2022-10-22T21:59:33.222Z,2.08
2022-10-22T22:02:05.622Z,1.70
2022-10-22T22:04:35.831Z,2.60
2022-10-22T22:07:11.459Z,2.03
2022-10-22T22:09:46.333Z,2.25
2022-10-22T22:12:19.548Z,2.10
2022-10-22T22:14:56.695Z,2.40
2022-10-22T22:17:31.144Z,2.83
2022-10-22T22:20:04.181Z,2.67
2022-10-22T22:22:39.697Z,2.75
2022-10-22T22:25:35.099Z,2.78
2022-10-22T22:28:25.535Z,2.00
2022-10-22T22:31:12.581Z,3.10
2022-10-22T22:33:40.115Z,3.25
2022-10-22T22:36:10.849Z,3.15
2022-10-22T22:38:46.410Z,3.03
2022-10-22T22:41:18.915Z,3.75
2022-10-22T22:43:45.945Z,4.28
2022-10-22T22:46:17.185Z,4.25
2022-10-22T22:48:55.822Z,4.32
2022-10-22T22:51:25.247Z,4.40
2022-10-22T22:54:05.866Z,5.25
2022-10-22T22:56:53.236Z,4.88
2022-10-22T22:59:25.044Z,5.82
2022-10-22T23:02:04.186Z,4.72
2022-10-22T23:04:37.345Z,5.03
2022-10-22T23:07:08.512Z,5.40
2022-10-22T23:09:40.441Z,5.45
2022-10-22T23:15:00.796Z,4.85
2022-10-22T23:17:30.287Z,4.63
2022-10-22T23:20:01.049Z,4.78
2022-10-22T23:22:49.386Z,5.45
2022-10-22T23:25:29.376Z,5.07
2022-10-22T23:28:02.438Z,5.25
2022-10-22T23:30:42.062Z,4.55
2022-10-22T23:33:19.971Z,4.68
2022-10-22T23:35:46.966Z,4.13
2022-10-22T23:38:17.428Z,3.20
2022-10-22T23:41:03.162Z,3.35
2022-10-22T23:43:40.274Z,3.10
2022-10-22T23:46:13.420Z,3.60
2022-10-22T23:49:05.787Z,3.33
2022-10-22T23:51:39.647Z,4.33
2022-10-22T23:54:17.721Z,3.67
2022-10-22T23:56:58.660Z,4.20
2022-10-22T23:59:26.530Z,4.88
